Time;durP1;ratioP1;P1;durP2;ratioP2;P2;SDS_P1;SDS_P2;PMS_P1;PMS_P2;Temp;Humidity;BMP_temperature;BMP_pressure;BME280_temperature;BME280_humidity;BME280_pressure;Samples;Min_cycle;Max_cycle;Signal;HPM_P1;HPM_P2
2023/07/14 00:01:16;;;;;;;;;;;12.40;99.90;;;;;;6281821;22;19931;-85
2023/07/14 00:03:42;;;;;;;;;;;12.30;99.90;;;;;;6281189;22;19981;-85
2023/07/14 00:06:10;;;;;;;;;;;12.30;99.90;;;;;;6255794;22;19987;-85
2023/07/14 00:08:36;;;;;;;;;;;12.30;99.90;;;;;;6307383;22;19933;-85
2023/07/14 00:11:02;;;;;;;;;;;12.30;99.90;;;;;;6255708;22;19909;-86
2023/07/14 00:13:28;;;;;;;;;;;12.30;99.90;;;;;;6281581;22;19906;-86
2023/07/14 00:15:53;;;;;;;;;;;12.30;99.90;;;;;;6281554;22;19907;-86
2023/07/14 00:18:23;;;;;;;;;;;12.30;99.90;;;;;;6280980;22;19953;-85
2023/07/14 00:20:48;;;;;;;;;;;12.30;99.90;;;;;;6280949;22;19985;-85
2023/07/14 00:23:15;;;;;;;;;;;12.30;99.90;;;;;;6281316;22;19926;-86
2023/07/14 00:25:41;;;;;;;;;;;12.20;99.90;;;;;;6255644;22;19907;-86
2023/07/14 00:28:17;;;;;;;;;;;12.20;99.90;;;;;;6255870;22;19956;-86
2023/07/14 00:30:43;;;;;;;;;;;12.10;99.90;;;;;;6281619;22;20269;-85
2023/07/14 00:33:13;;;;;;;;;;;12.10;99.90;;;;;;6281676;22;19903;-85
2023/07/14 00:35:39;;;;;;;;;;;12.10;99.90;;;;;;6281143;22;19981;-86
2023/07/14 00:38:05;;;;;;;;;;;12.20;99.90;;;;;;6255878;22;19926;-85
2023/07/14 00:40:38;;;;;;;;;;;12.10;99.90;;;;;;6281327;22;19931;-85
2023/07/14 00:43:06;;;;;;;;;;;12.10;99.90;;;;;;6281197;22;19902;-86
2023/07/14 00:45:34;;;;;;;;;;;12.10;99.90;;;;;;6280967;22;19968;-86
2023/07/14 00:48:04;;;;;;;;;;;12.10;99.90;;;;;;6255649;22;19903;-86
2023/07/14 00:50:29;;;;;;;;;;;12.10;99.90;;;;;;6306727;22;20231;-85
2023/07/14 00:52:58;;;;;;;;;;;12.00;99.90;;;;;;6280629;22;19910;-84
2023/07/14 00:55:26;;;;;;;;;;;12.00;99.90;;;;;;6281098;22;19899;-85
2023/07/14 00:57:53;;;;;;;;;;;12.00;99.90;;;;;;6280942;22;19952;-85
2023/07/14 01:00:24;;;;;;;;;;;12.00;99.90;;;;;;6281007;22;19913;-86
2023/07/14 01:02:49;;;;;;;;;;;11.90;99.90;;;;;;6255958;22;20365;-85
2023/07/14 01:05:15;;;;;;;;;;;11.90;99.90;;;;;;6255114;22;19949;-86
2023/07/14 01:07:43;;;;;;;;;;;11.90;99.90;;;;;;6255176;22;19902;-86
2023/07/14 01:10:11;;;;;;;;;;;11.90;99.90;;;;;;6280916;22;19902;-85
2023/07/14 01:12:40;;;;;;;;;;;11.90;99.90;;;;;;6306988;22;19906;-86
2023/07/14 01:15:06;;;;;;;;;;;11.80;99.90;;;;;;6255478;22;19909;-86
2023/07/14 01:17:33;;;;;;;;;;;11.70;99.90;;;;;;6255935;22;19909;-85
2023/07/14 01:20:00;;;;;;;;;;;11.70;99.90;;;;;;6281137;22;19923;-86
2023/07/14 01:22:39;;;;;;;;;;;11.70;99.90;;;;;;6281136;22;20210;-85
2023/07/14 01:25:08;;;;;;;;;;;11.70;99.90;;;;;;6280301;22;19906;-85
2023/07/14 01:27:33;;;;;;;;;;;11.70;99.90;;;;;;6280533;22;20238;-85
2023/07/14 01:29:59;;;;;;;;;;;11.70;99.90;;;;;;6255021;22;19903;-85
2023/07/14 01:32:39;;;;;;;;;;;11.60;99.90;;;;;;6255198;22;19910;-85
2023/07/14 01:35:05;;;;;;;;;;;11.60;99.90;;;;;;6283180;22;19903;-85
2023/07/14 01:37:35;;;;;;;;;;;11.60;99.90;;;;;;6256950;22;20330;-85
2023/07/14 01:40:05;;;;;;;;;;;11.60;99.90;;;;;;6282929;22;20023;-86
2023/07/14 01:42:32;;;;;;;;;;;11.60;99.90;;;;;;6283034;22;20318;-85
2023/07/14 01:45:18;;;;;;;;;;;11.60;99.90;;;;;;6256611;22;19915;-86
2023/07/14 01:47:46;;;;;;;;;;;11.60;99.90;;;;;;6308126;22;19914;-85
2023/07/14 01:50:22;;;;;;;;;;;11.50;99.90;;;;;;6257001;22;19913;-85
2023/07/14 01:52:51;;;;;;;;;;;11.50;99.90;;;;;;6282482;22;19907;-85
2023/07/14 01:55:19;;;;;;;;;;;11.50;99.90;;;;;;6256753;22;19955;-85
2023/07/14 01:57:45;;;;;;;;;;;11.50;99.90;;;;;;6257054;22;20325;-85
2023/07/14 02:00:12;;;;;;;;;;;11.50;99.90;;;;;;6308369;22;19982;-85
2023/07/14 02:02:41;;;;;;;;;;;11.50;99.90;;;;;;6283833;22;19934;-85
2023/07/14 02:05:20;;;;;;;;;;;11.50;99.90;;;;;;6308181;22;19910;-85
2023/07/14 02:07:46;;;;;;;;;;;11.50;99.90;;;;;;6308330;22;19930;-85
2023/07/14 02:10:15;;;;;;;;;;;11.50;99.90;;;;;;6282422;22;20551;-85
2023/07/14 02:12:46;;;;;;;;;;;11.50;99.90;;;;;;6282332;22;19906;-86
2023/07/14 02:15:23;;;;;;;;;;;11.60;99.90;;;;;;6282193;22;19979;-85
2023/07/14 02:17:49;;;;;;;;;;;11.60;99.90;;;;;;6307893;22;19938;-86
2023/07/14 02:20:20;;;;;;;;;;;11.50;99.90;;;;;;6256584;22;19913;-86
2023/07/14 02:22:47;;;;;;;;;;;11.40;99.90;;;;;;6308033;22;19985;-85
2023/07/14 02:25:14;;;;;;;;;;;11.40;99.90;;;;;;6256328;22;19911;-85
2023/07/14 02:27:40;;;;;;;;;;;11.30;99.90;;;;;;6256887;22;19902;-86
2023/07/14 02:30:16;;;;;;;;;;;11.40;99.90;;;;;;6256718;22;19982;-86
2023/07/14 02:32:45;;;;;;;;;;;11.40;99.90;;;;;;6256851;22;19903;-86
2023/07/14 02:35:14;;;;;;;;;;;11.40;99.90;;;;;;6256541;22;20362;-85
2023/07/14 02:38:01;;;;;;;;;;;11.40;99.90;;;;;;6256466;22;19903;-85
2023/07/14 02:40:28;;;;;;;;;;;11.30;99.90;;;;;;6282202;22;20255;-85
2023/07/14 02:43:10;;;;;;;;;;;11.30;99.90;;;;;;6256718;22;19906;-85
2023/07/14 02:45:39;;;;;;;;;;;11.30;99.90;;;;;;6255612;22;19913;-85
2023/07/14 02:48:07;;;;;;;;;;;11.30;99.90;;;;;;6307547;22;20281;-85
2023/07/14 02:50:33;;;;;;;;;;;11.20;99.90;;;;;;6256685;22;19967;-86
2023/07/14 02:52:59;;;;;;;;;;;11.20;99.90;;;;;;6255963;22;19938;-85
2023/07/14 02:55:24;;;;;;;;;;;11.30;99.90;;;;;;6256041;22;20341;-85
2023/07/14 02:57:50;;;;;;;;;;;11.20;99.90;;;;;;6256071;22;19910;-86
2023/07/14 03:00:16;;;;;;;;;;;11.20;99.90;;;;;;6255915;22;19907;-85
2023/07/14 03:02:42;;;;;;;;;;;11.20;99.90;;;;;;6255818;22;19906;-86
2023/07/14 03:05:11;;;;;;;;;;;11.20;99.90;;;;;;6281607;22;19911;-85
2023/07/14 03:07:37;;;;;;;;;;;11.20;99.90;;;;;;6281971;22;20206;-85
2023/07/14 03:10:04;;;;;;;;;;;11.20;99.90;;;;;;6256316;22;20345;-85
2023/07/14 03:12:30;;;;;;;;;;;11.10;99.90;;;;;;6256512;22;19926;-85
2023/07/14 03:14:55;;;;;;;;;;;11.20;99.90;;;;;;6282188;22;19903;-85
2023/07/14 03:17:22;;;;;;;;;;;11.10;99.90;;;;;;6308081;22;19906;-85
2023/07/14 03:19:47;;;;;;;;;;;11.20;99.90;;;;;;6256411;22;20272;-85
2023/07/14 03:22:13;;;;;;;;;;;11.20;99.90;;;;;;6256271;22;19926;-85
2023/07/14 03:24:39;;;;;;;;;;;11.20;99.90;;;;;;6256248;22;19913;-85
2023/07/14 03:27:04;;;;;;;;;;;11.30;99.90;;;;;;6256608;22;19914;-86
2023/07/14 03:29:30;;;;;;;;;;;11.40;99.90;;;;;;6256186;22;19929;-85
2023/07/14 03:31:56;;;;;;;;;;;11.50;99.90;;;;;;6255635;22;19937;-85
2023/07/14 03:34:22;;;;;;;;;;;11.60;99.90;;;;;;6256332;22;19930;-86
2023/07/14 03:36:48;;;;;;;;;;;11.60;99.90;;;;;;6255621;22;19907;-87
2023/07/14 03:39:25;;;;;;;;;;;11.70;99.90;;;;;;6255568;22;19985;-87
2023/07/14 03:41:51;;;;;;;;;;;11.70;99.90;;;;;;6306859;22;19898;-86
2023/07/14 03:44:17;;;;;;;;;;;11.70;99.90;;;;;;6280895;22;19906;-86
2023/07/14 03:50:13;;;;;;;;;;;11.80;99.90;;;;;;6308359;22;19910;-86
2023/07/14 03:52:45;;;;;;;;;;;12.00;99.90;;;;;;6280735;22;20545;-86
2023/07/14 03:58:41;;;;;;;;;;;12.10;99.90;;;;;;6308429;22;20273;-87
2023/07/14 04:01:07;;;;;;;;;;;12.30;99.90;;;;;;6255543;22;19988;-86
2023/07/14 04:03:33;;;;;;;;;;;12.30;99.90;;;;;;6256238;22;20219;-86
2023/07/14 04:05:58;;;;;;;;;;;12.40;99.90;;;;;;6254876;22;19902;-87
2023/07/14 04:08:34;;;;;;;;;;;12.60;99.90;;;;;;6308716;22;19952;-86
2023/07/14 04:11:15;;;;;;;;;;;12.70;99.90;;;;;;6306357;22;20353;-87
2023/07/14 04:13:48;;;;;;;;;;;12.80;99.90;;;;;;6256149;22;19938;-87
2023/07/14 04:19:48;;;;;;;;;;;13.10;99.90;;;;;;6273449;22;19937;-86
2023/07/14 04:22:14;;;;;;;;;;;13.20;99.90;;;;;;6246979;22;19903;-86
2023/07/14 04:24:40;;;;;;;;;;;13.30;99.90;;;;;;6248243;22;19907;-87
2023/07/14 04:27:06;;;;;;;;;;;13.50;99.90;;;;;;6223683;22;19953;-86
2023/07/14 04:29:31;;;;;;;;;;;13.70;99.90;;;;;;6223119;22;19903;-86
2023/07/14 04:31:58;;;;;;;;;;;13.90;99.90;;;;;;6248368;22;19957;-87
2023/07/14 04:34:25;;;;;;;;;;;14.20;99.90;;;;;;6248779;22;20547;-87
2023/07/14 04:36:51;;;;;;;;;;;14.40;99.90;;;;;;6248619;22;19903;-87
2023/07/14 04:39:17;;;;;;;;;;;14.60;99.90;;;;;;6223500;22;19910;-87
2023/07/14 04:41:44;;;;;;;;;;;14.80;99.90;;;;;;6223677;22;19913;-87
2023/07/14 04:44:13;;;;;;;;;;;15.00;99.90;;;;;;6249111;22;19911;-87
2023/07/14 04:46:39;;;;;;;;;;;15.10;99.90;;;;;;6230874;22;20542;-87
2023/07/14 04:49:06;;;;;;;;;;;15.20;99.90;;;;;;6255091;22;20007;-86
2023/07/14 04:51:32;;;;;;;;;;;15.30;99.90;;;;;;6255321;22;20298;-86
2023/07/14 04:53:57;;;;;;;;;;;15.40;99.90;;;;;;6255170;22;19945;-87
2023/07/14 04:56:23;;;;;;;;;;;15.50;99.90;;;;;;6281003;22;20270;-87
2023/07/14 05:02:27;;;;;;;;;;;15.80;99.90;;;;;;6308134;22;19998;-87
2023/07/14 05:05:12;;;;;;;;;;;16.00;99.90;;;;;;6254619;22;19907;-87
2023/07/14 05:07:38;;;;;;;;;;;16.10;99.90;;;;;;6255451;22;20285;-88
2023/07/14 05:10:04;;;;;;;;;;;16.30;99.90;;;;;;6256874;22;19929;-87
2023/07/14 05:12:32;;;;;;;;;;;16.60;99.90;;;;;;6283152;22;19903;-87
2023/07/14 05:15:05;;;;;;;;;;;16.80;99.90;;;;;;6257919;22;19930;-87
2023/07/14 05:17:34;;;;;;;;;;;17.00;99.90;;;;;;6257409;22;19909;-87
2023/07/14 05:20:00;;;;;;;;;;;17.20;99.90;;;;;;6256915;22;19946;-87
2023/07/14 05:22:26;;;;;;;;;;;17.40;99.90;;;;;;6257093;22;19903;-87
2023/07/14 05:24:51;;;;;;;;;;;17.50;99.90;;;;;;6257352;22;19913;-86
2023/07/14 05:27:17;;;;;;;;;;;17.60;99.90;;;;;;6256949;22;20281;-87
2023/07/14 05:29:46;;;;;;;;;;;17.60;99.90;;;;;;6256978;22;19910;-87
2023/07/14 05:32:12;;;;;;;;;;;17.60;99.90;;;;;;6282577;22;19899;-87
2023/07/14 05:34:38;;;;;;;;;;;17.80;99.90;;;;;;6257496;22;20412;-87
2023/07/14 05:37:04;;;;;;;;;;;18.00;99.90;;;;;;6283148;22;19956;-87
2023/07/14 05:39:29;;;;;;;;;;;18.20;99.90;;;;;;6256634;22;19903;-87
2023/07/14 05:41:58;;;;;;;;;;;18.30;99.90;;;;;;6256555;22;19985;-87
2023/07/14 05:44:24;;;;;;;;;;;18.40;99.90;;;;;;6256597;22;19906;-87
2023/07/14 05:46:50;;;;;;;;;;;18.50;99.90;;;;;;6257866;22;20231;-88
2023/07/14 05:49:16;;;;;;;;;;;18.50;99.90;;;;;;6256744;22;19907;-87
2023/07/14 05:51:42;;;;;;;;;;;18.50;99.90;;;;;;6254715;22;19961;-88
2023/07/14 05:54:08;;;;;;;;;;;18.60;99.90;;;;;;6256615;22;19968;-87
2023/07/14 05:56:34;;;;;;;;;;;18.60;99.90;;;;;;6281316;22;20285;-87
2023/07/14 05:59:00;;;;;;;;;;;18.70;99.90;;;;;;6307250;22;20307;-87
2023/07/14 06:01:25;;;;;;;;;;;18.90;99.90;;;;;;6281658;22;19909;-87
2023/07/14 06:03:51;;;;;;;;;;;19.10;99.90;;;;;;6256807;22;19902;-87
2023/07/14 06:06:17;;;;;;;;;;;19.40;99.90;;;;;;6257039;22;19946;-88
2023/07/14 06:08:45;;;;;;;;;;;19.70;99.90;;;;;;6256345;22;19902;-87
2023/07/14 06:11:11;;;;;;;;;;;19.90;99.90;;;;;;6256100;22;19909;-87
2023/07/14 06:13:37;;;;;;;;;;;20.10;99.90;;;;;;6281909;22;19960;-88
2023/07/14 06:16:03;;;;;;;;;;;20.30;99.90;;;;;;6256240;22;19907;-87
2023/07/14 06:18:29;;;;;;;;;;;20.40;99.90;;;;;;6256088;22;20608;-87
2023/07/14 06:20:54;;;;;;;;;;;20.50;99.90;;;;;;6256807;22;19903;-87
2023/07/14 06:23:20;;;;;;;;;;;20.60;99.90;;;;;;6307366;22;19911;-87
2023/07/14 06:25:46;;;;;;;;;;;20.70;99.90;;;;;;6282085;22;20517;-88
2023/07/14 06:28:12;;;;;;;;;;;20.80;99.90;;;;;;6282219;22;19913;-88
2023/07/14 06:30:38;;;;;;;;;;;20.90;99.90;;;;;;6282084;22;20370;-87
2023/07/14 06:33:04;;;;;;;;;;;21.10;99.90;;;;;;6281876;22;19934;-87
2023/07/14 06:35:30;;;;;;;;;;;21.20;99.90;;;;;;6256727;22;19899;-88
2023/07/14 06:37:57;;;;;;;;;;;21.20;99.90;;;;;;6256038;22;19938;-88
2023/07/14 06:40:24;;;;;;;;;;;21.30;99.90;;;;;;6256109;22;20288;-87
2023/07/14 06:42:49;;;;;;;;;;;21.20;99.90;;;;;;6281862;22;19903;-87
2023/07/14 06:45:15;;;;;;;;;;;21.30;99.90;;;;;;6255264;22;19922;-87
2023/07/14 06:47:41;;;;;;;;;;;21.50;99.90;;;;;;6307766;22;20216;-87
2023/07/14 06:50:07;;;;;;;;;;;21.70;99.90;;;;;;6256390;22;19952;-87
2023/07/14 06:52:37;;;;;;;;;;;21.90;99.90;;;;;;6256155;22;19903;-87
2023/07/14 06:55:04;;;;;;;;;;;21.80;99.90;;;;;;6282288;22;19914;-87
2023/07/14 06:57:30;;;;;;;;;;;21.80;99.90;;;;;;6282079;22;20659;-87
2023/07/14 06:59:57;;;;;;;;;;;21.40;99.90;;;;;;6255832;22;19926;-86
2023/07/14 07:02:29;;;;;;;;;;;21.40;99.90;;;;;;6308556;22;19906;-87
2023/07/14 07:04:54;;;;;;;;;;;21.60;99.90;;;;;;6280915;22;19922;-87
2023/07/14 07:07:20;;;;;;;;;;;21.60;99.90;;;;;;6281263;22;19906;-88
2023/07/14 07:09:46;;;;;;;;;;;21.60;99.90;;;;;;6281571;22;19903;-87
2023/07/14 07:12:12;;;;;;;;;;;21.60;99.90;;;;;;6259183;22;19907;-87
2023/07/14 07:14:38;;;;;;;;;;;21.80;99.90;;;;;;6281914;22;19991;-87
2023/07/14 07:17:03;;;;;;;;;;;21.70;99.90;;;;;;6281420;22;19985;-88
2023/07/14 07:19:33;;;;;;;;;;;21.40;99.90;;;;;;6255891;22;19902;-88
2023/07/14 07:21:59;;;;;;;;;;;21.60;99.90;;;;;;6281071;22;19934;-87
2023/07/14 07:24:25;;;;;;;;;;;21.50;99.90;;;;;;6255785;22;19917;-87
2023/07/14 07:26:51;;;;;;;;;;;21.60;99.90;;;;;;6255737;22;19997;-87
2023/07/14 07:29:17;;;;;;;;;;;21.60;99.90;;;;;;6281821;22;19903;-87
2023/07/14 07:31:42;;;;;;;;;;;21.80;99.90;;;;;;6280741;22;20333;-87
2023/07/14 07:34:08;;;;;;;;;;;22.20;99.90;;;;;;6280877;22;19903;-88
2023/07/14 07:36:34;;;;;;;;;;;23.40;99.90;;;;;;6255709;22;19952;-88
2023/07/14 07:39:00;;;;;;;;;;;24.50;99.00;;;;;;6305557;22;19917;-88
2023/07/14 07:41:26;;;;;;;;;;;24.90;97.90;;;;;;6255183;22;20234;-88
2023/07/14 07:43:52;;;;;;;;;;;24.50;97.00;;;;;;6255471;22;20303;-88
2023/07/14 07:46:21;;;;;;;;;;;23.80;97.30;;;;;;6281749;22;19976;-88
2023/07/14 07:48:47;;;;;;;;;;;23.20;97.80;;;;;;6255355;22;19941;-87
2023/07/14 07:51:13;;;;;;;;;;;22.60;98.40;;;;;;6255250;22;19948;-88
2023/07/14 07:53:39;;;;;;;;;;;22.60;99.90;;;;;;6255556;22;19906;-88
2023/07/14 07:56:05;;;;;;;;;;;22.50;99.90;;;;;;6281369;22;19903;-88
2023/07/14 07:58:31;;;;;;;;;;;22.60;99.30;;;;;;6281243;22;19902;-88
2023/07/14 08:01:01;;;;;;;;;;;23.10;99.00;;;;;;6281004;22;20219;-88
2023/07/14 08:03:27;;;;;;;;;;;24.10;97.90;;;;;;6255103;22;19903;-87
2023/07/14 08:05:57;;;;;;;;;;;25.00;96.10;;;;;;6280328;22;19945;-87
2023/07/14 08:08:23;;;;;;;;;;;24.90;95.70;;;;;;6255875;22;19932;-88
2023/07/14 08:10:49;;;;;;;;;;;24.80;96.60;;;;;;6281088;22;19905;-87
2023/07/14 08:13:14;;;;;;;;;;;25.20;96.10;;;;;;6306741;22;19929;-88
2023/07/14 08:15:40;;;;;;;;;;;26.10;95.60;;;;;;6280759;22;19902;-88
2023/07/14 08:18:07;;;;;;;;;;;27.30;94.10;;;;;;6307192;22;20330;-87
2023/07/14 08:20:34;;;;;;;;;;;27.50;91.80;;;;;;6255686;22;20581;-88
2023/07/14 08:23:15;;;;;;;;;;;27.10;89.40;;;;;;6255687;22;19902;-87
2023/07/14 08:25:41;;;;;;;;;;;27.30;89.10;;;;;;6281322;22;19910;-87
2023/07/14 08:28:07;;;;;;;;;;;26.70;87.30;;;;;;6281320;22;19910;-88
2023/07/14 08:30:33;;;;;;;;;;;27.20;88.60;;;;;;6255454;22;19952;-88
2023/07/14 08:32:59;;;;;;;;;;;27.30;85.30;;;;;;6256121;22;20321;-88
2023/07/14 08:35:24;;;;;;;;;;;28.30;86.00;;;;;;6255652;22;19910;-88
2023/07/14 08:37:50;;;;;;;;;;;29.00;80.50;;;;;;6255767;22;19910;-89
2023/07/14 08:40:21;;;;;;;;;;;29.50;78.70;;;;;;6281008;22;19910;-87
2023/07/14 08:42:50;;;;;;;;;;;30.10;76.70;;;;;;6255426;22;19903;-88
2023/07/14 08:45:25;;;;;;;;;;;29.70;72.50;;;;;;6281352;22;19950;-87
2023/07/14 08:47:58;;;;;;;;;;;28.90;73.30;;;;;;6306978;22;19914;-87
2023/07/14 08:50:26;;;;;;;;;;;28.10;74.80;;;;;;6280725;22;19910;-89
2023/07/14 08:52:54;;;;;;;;;;;27.40;74.50;;;;;;6255645;22;19899;-88
2023/07/14 08:55:32;;;;;;;;;;;27.20;76.60;;;;;;6307037;22;19903;-89
2023/07/14 08:58:01;;;;;;;;;;;28.00;76.80;;;;;;6307862;22;19907;-88
2023/07/14 09:00:33;;;;;;;;;;;27.50;77.00;;;;;;6280737;22;20459;-88
2023/07/14 09:03:04;;;;;;;;;;;27.80;76.20;;;;;;6255582;22;19942;-88
2023/07/14 09:05:31;;;;;;;;;;;28.20;75.60;;;;;;6280549;22;20234;-88
2023/07/14 09:07:57;;;;;;;;;;;28.40;73.60;;;;;;6281218;22;19906;-88
2023/07/14 09:10:29;;;;;;;;;;;28.30;73.50;;;;;;6254931;22;20314;-88
2023/07/14 09:13:01;;;;;;;;;;;27.90;75.00;;;;;;6280512;22;19926;-87
2023/07/14 09:15:27;;;;;;;;;;;28.40;74.90;;;;;;6281128;22;20372;-88
2023/07/14 09:17:53;;;;;;;;;;;28.00;73.70;;;;;;6255432;22;19903;-88
2023/07/14 09:20:32;;;;;;;;;;;28.00;75.60;;;;;;6306829;22;20380;-88
2023/07/14 09:23:16;;;;;;;;;;;28.10;75.90;;;;;;6280812;22;19907;-88
2023/07/14 09:25:48;;;;;;;;;;;28.20;76.70;;;;;;6280368;22;19942;-89
2023/07/14 09:28:17;;;;;;;;;;;27.70;77.40;;;;;;6280668;22;19909;-88
2023/07/14 09:30:45;;;;;;;;;;;27.70;76.70;;;;;;6281201;22;19899;-87
2023/07/14 09:33:37;;;;;;;;;;;27.30;78.90;;;;;;6280733;22;20243;-88
2023/07/14 09:36:08;;;;;;;;;;;27.40;78.40;;;;;;6281259;22;19910;-88
2023/07/14 09:38:54;;;;;;;;;;;27.20;77.70;;;;;;6255546;22;19903;-87
2023/07/14 09:41:22;;;;;;;;;;;27.00;79.30;;;;;;6280436;22;19926;-88
2023/07/14 09:43:47;;;;;;;;;;;27.70;78.60;;;;;;6255518;22;19937;-88
2023/07/14 09:46:17;;;;;;;;;;;28.10;77.20;;;;;;6280541;22;19910;-88
2023/07/14 09:48:47;;;;;;;;;;;28.10;77.00;;;;;;6255459;22;19964;-88
2023/07/14 09:51:15;;;;;;;;;;;28.40;76.10;;;;;;6280145;22;19926;-88
2023/07/14 09:53:56;;;;;;;;;;;28.40;75.70;;;;;;6280753;22;20273;-88
2023/07/14 09:56:24;;;;;;;;;;;28.40;75.50;;;;;;6282494;22;19914;-88
2023/07/14 09:58:52;;;;;;;;;;;28.40;73.90;;;;;;6257208;22;19903;-88
2023/07/14 10:01:17;;;;;;;;;;;28.80;73.20;;;;;;6282416;22;19906;-88
2023/07/14 10:03:54;;;;;;;;;;;28.80;72.30;;;;;;6308683;22;19907;-89
2023/07/14 10:06:20;;;;;;;;;;;29.60;72.50;;;;;;6257388;22;19911;-89
2023/07/14 10:08:49;;;;;;;;;;;30.80;70.40;;;;;;6308344;22;19945;-89
2023/07/14 10:11:18;;;;;;;;;;;31.80;67.50;;;;;;6254638;22;19911;-89
2023/07/14 10:13:45;;;;;;;;;;;32.70;65.50;;;;;;6282881;22;19903;-89
2023/07/14 10:16:16;;;;;;;;;;;32.70;62.50;;;;;;6257371;22;20526;-88
2023/07/14 10:18:50;;;;;;;;;;;31.80;62.50;;;;;;6283377;22;19910;-88
2023/07/14 10:21:21;;;;;;;;;;;30.80;65.30;;;;;;6282642;22;19909;-89
2023/07/14 10:23:57;;;;;;;;;;;30.00;63.10;;;;;;6282751;22;19907;-89
2023/07/14 10:26:23;;;;;;;;;;;30.30;65.30;;;;;;6282223;22;19946;-88
2023/07/14 10:28:50;;;;;;;;;;;30.50;65.30;;;;;;6256861;22;19907;-88
2023/07/14 10:31:34;;;;;;;;;;;30.00;64.00;;;;;;6256565;22;19911;-89
2023/07/14 10:34:10;;;;;;;;;;;29.50;64.20;;;;;;6282459;22;19952;-88
2023/07/14 10:36:37;;;;;;;;;;;28.40;65.60;;;;;;6282021;22;19914;-88
2023/07/14 10:39:11;;;;;;;;;;;27.70;66.80;;;;;;6256113;22;19937;-88
2023/07/14 10:41:38;;;;;;;;;;;27.70;67.70;;;;;;6255657;22;19902;-88
2023/07/14 10:44:11;;;;;;;;;;;27.70;68.70;;;;;;6256588;22;19906;-87
2023/07/14 10:46:42;;;;;;;;;;;27.30;68.80;;;;;;6281245;22;19906;-88
2023/07/14 10:49:22;;;;;;;;;;;27.70;68.80;;;;;;6256292;22;19907;-88
2023/07/14 10:51:53;;;;;;;;;;;28.50;67.40;;;;;;6281999;22;19938;-89
2023/07/14 10:54:40;;;;;;;;;;;28.60;67.00;;;;;;6256748;22;20238;-88
2023/07/14 10:57:20;;;;;;;;;;;28.30;66.80;;;;;;6308125;22;19910;-89
2023/07/14 10:59:53;;;;;;;;;;;28.10;67.40;;;;;;6281931;22;20337;-88
2023/07/14 11:02:56;;;;;;;;;;;28.20;67.30;;;;;;6256459;22;20310;-89
2023/07/14 11:05:23;;;;;;;;;;;28.10;67.30;;;;;;6281532;22;19964;-88
2023/07/14 11:07:49;;;;;;;;;;;28.80;65.90;;;;;;6282182;22;19907;-86
2023/07/14 11:10:37;;;;;;;;;;;29.00;65.10;;;;;;6308490;22;19903;-86
2023/07/14 11:13:03;;;;;;;;;;;29.50;64.60;;;;;;6308548;22;19903;-87
2023/07/14 11:15:35;;;;;;;;;;;29.10;63.40;;;;;;6281059;22;20265;-89
2023/07/14 11:18:10;;;;;;;;;;;29.50;61.30;;;;;;6307353;22;19903;-93
2023/07/14 11:20:39;;;;;;;;;;;29.80;59.40;;;;;;6281317;22;19909;-85
2023/07/14 11:23:05;;;;;;;;;;;30.70;60.90;;;;;;6281093;22;19935;-85
2023/07/14 11:25:30;;;;;;;;;;;30.80;59.60;;;;;;6280527;22;19933;-87
2023/07/14 11:27:56;;;;;;;;;;;30.40;61.30;;;;;;6282680;22;20311;-91
2023/07/14 11:30:25;;;;;;;;;;;30.70;60.50;;;;;;6281480;22;19907;-89
2023/07/14 11:32:57;;;;;;;;;;;31.20;60.70;;;;;;6309218;22;20318;-89
2023/07/14 11:35:29;;;;;;;;;;;31.30;59.90;;;;;;6282309;22;20268;-89
2023/07/14 11:38:04;;;;;;;;;;;30.90;60.10;;;;;;6307796;22;19903;-89
2023/07/14 11:40:35;;;;;;;;;;;30.10;62.30;;;;;;6307616;22;19907;-88
2023/07/14 11:43:02;;;;;;;;;;;30.10;62.00;;;;;;6281259;22;20239;-88
2023/07/14 11:45:29;;;;;;;;;;;29.90;61.70;;;;;;6281255;22;19910;-89
2023/07/14 11:47:57;;;;;;;;;;;29.40;63.40;;;;;;6255971;22;19903;-89
2023/07/14 11:50:35;;;;;;;;;;;29.90;63.20;;;;;;6281241;22;19910;-89
2023/07/14 11:53:18;;;;;;;;;;;30.30;60.20;;;;;;6308161;22;20337;-89
2023/07/14 11:55:45;;;;;;;;;;;30.60;59.70;;;;;;6282254;22;19903;-88
2023/07/14 11:58:17;;;;;;;;;;;31.20;58.50;;;;;;6281625;22;19981;-88
2023/07/14 12:00:47;;;;;;;;;;;31.50;58.90;;;;;;6307830;22;20254;-88
2023/07/14 12:03:22;;;;;;;;;;;31.60;59.80;;;;;;6281760;22;19910;-87
2023/07/14 12:06:08;;;;;;;;;;;31.50;61.00;;;;;;6307470;22;19914;-88
2023/07/14 12:08:38;;;;;;;;;;;30.70;59.40;;;;;;6281658;22;20323;-88
2023/07/14 12:11:04;;;;;;;;;;;30.00;63.10;;;;;;6256695;22;19952;-87
2023/07/14 12:13:34;;;;;;;;;;;30.50;60.50;;;;;;6256096;22;20319;-87
2023/07/14 12:16:00;;;;;;;;;;;30.90;59.40;;;;;;6255757;22;20311;-87
2023/07/14 12:18:28;;;;;;;;;;;31.40;60.30;;;;;;6281661;22;19909;-87
2023/07/14 12:21:13;;;;;;;;;;;31.20;61.00;;;;;;6306975;22;19951;-87
2023/07/14 12:23:39;;;;;;;;;;;31.00;61.20;;;;;;6306614;22;19911;-87
2023/07/14 12:26:15;;;;;;;;;;;31.00;59.70;;;;;;6308304;22;19907;-87
2023/07/14 12:28:41;;;;;;;;;;;30.90;60.10;;;;;;6255469;22;19903;-87
2023/07/14 12:31:24;;;;;;;;;;;31.10;59.70;;;;;;6255817;22;19903;-88
2023/07/14 12:33:54;;;;;;;;;;;31.00;60.00;;;;;;6255429;22;19907;-88
2023/07/14 12:36:21;;;;;;;;;;;30.70;60.50;;;;;;6255810;22;19918;-87
2023/07/14 12:38:51;;;;;;;;;;;31.40;60.80;;;;;;6281171;22;19910;-87
2023/07/14 12:41:17;;;;;;;;;;;31.40;59.40;;;;;;6256261;22;19949;-87
2023/07/14 12:43:44;;;;;;;;;;;31.80;60.20;;;;;;6307285;22;19902;-88
2023/07/14 12:46:14;;;;;;;;;;;32.50;58.10;;;;;;6281292;22;19906;-87
2023/07/14 12:48:40;;;;;;;;;;;33.00;56.80;;;;;;6280965;22;19907;-87
2023/07/14 12:51:22;;;;;;;;;;;31.80;59.20;;;;;;6280481;22;19941;-85
2023/07/14 12:53:49;;;;;;;;;;;30.20;60.40;;;;;;6306127;22;19950;-88
2023/07/14 12:56:15;;;;;;;;;;;29.70;61.60;;;;;;6280584;22;19898;-88
2023/07/14 12:58:41;;;;;;;;;;;30.10;61.20;;;;;;6280122;22;19907;-87
2023/07/14 13:01:06;;;;;;;;;;;30.10;61.20;;;;;;6254289;22;20316;-87
2023/07/14 13:03:36;;;;;;;;;;;30.30;60.90;;;;;;6254102;22;19933;-87
2023/07/14 13:06:02;;;;;;;;;;;30.30;59.30;;;;;;6280106;22;20204;-86
2023/07/14 13:08:28;;;;;;;;;;;30.50;59.70;;;;;;6280692;22;19903;-87
2023/07/14 13:10:55;;;;;;;;;;;30.30;59.50;;;;;;6308125;22;19903;-87
2023/07/14 13:13:27;;;;;;;;;;;29.90;59.70;;;;;;6280588;22;19957;-88
2023/07/14 13:15:54;;;;;;;;;;;29.90;61.10;;;;;;6280489;22;19964;-86
2023/07/14 13:18:27;;;;;;;;;;;29.90;59.70;;;;;;6303008;22;19907;-81
2023/07/14 13:20:54;;;;;;;;;;;29.80;61.10;;;;;;6307867;22;19910;-82
2023/07/14 13:23:22;;;;;;;;;;;29.60;60.20;;;;;;6253641;22;19911;-82
2023/07/14 13:26:03;;;;;;;;;;;29.80;61.70;;;;;;6306047;22;20295;-82
2023/07/14 13:28:32;;;;;;;;;;;29.90;60.60;;;;;;6280723;22;19930;-82
2023/07/14 13:31:05;;;;;;;;;;;29.80;59.90;;;;;;6282335;22;20472;-82
2023/07/14 13:33:32;;;;;;;;;;;29.60;59.70;;;;;;6282588;22;19903;-82
2023/07/14 13:36:04;;;;;;;;;;;29.40;60.80;;;;;;6256930;22;19948;-81
2023/07/14 13:38:30;;;;;;;;;;;29.40;61.00;;;;;;6282372;22;19929;-81
2023/07/14 13:41:05;;;;;;;;;;;29.40;61.70;;;;;;6256869;22;19907;-81
2023/07/14 13:43:31;;;;;;;;;;;29.10;61.60;;;;;;6282507;22;20005;-81
2023/07/14 13:45:57;;;;;;;;;;;28.90;62.60;;;;;;6256862;22;19942;-81
2023/07/14 13:48:26;;;;;;;;;;;28.70;61.60;;;;;;6256404;22;19903;-81
2023/07/14 13:50:52;;;;;;;;;;;28.00;61.50;;;;;;6281677;22;19981;-81
2023/07/14 13:53:17;;;;;;;;;;;27.90;63.40;;;;;;6308604;22;20357;-81
2023/07/14 13:55:43;;;;;;;;;;;27.40;62.90;;;;;;6308089;22;19903;-81
2023/07/14 13:58:13;;;;;;;;;;;27.30;64.70;;;;;;6309459;22;19902;-81
2023/07/14 14:00:39;;;;;;;;;;;27.30;65.60;;;;;;6282082;22;20327;-81
2023/07/14 14:03:06;;;;;;;;;;;27.80;64.80;;;;;;6282162;22;19910;-82
2023/07/14 14:05:38;;;;;;;;;;;28.30;65.30;;;;;;6282162;22;20032;-83
2023/07/14 14:08:05;;;;;;;;;;;28.80;64.10;;;;;;6307783;22;19903;-81
2023/07/14 14:10:31;;;;;;;;;;;28.60;63.20;;;;;;6309121;22;19903;-81
2023/07/14 14:12:58;;;;;;;;;;;28.70;62.90;;;;;;6281969;22;19910;-82
2023/07/14 14:15:29;;;;;;;;;;;29.50;62.80;;;;;;6307676;22;19906;-82
2023/07/14 14:17:57;;;;;;;;;;;30.50;60.50;;;;;;6256567;22;20198;-82
2023/07/14 14:20:29;;;;;;;;;;;31.60;58.90;;;;;;6308201;22;20350;-82
2023/07/14 14:22:55;;;;;;;;;;;32.40;57.10;;;;;;6281406;22;20373;-83
2023/07/14 14:25:23;;;;;;;;;;;33.10;57.00;;;;;;6281225;22;19914;-83
2023/07/14 14:27:49;;;;;;;;;;;34.30;55.40;;;;;;6307142;22;20381;-82
2023/07/14 14:30:15;;;;;;;;;;;33.80;54.40;;;;;;6281253;22;20307;-82
2023/07/14 14:32:46;;;;;;;;;;;33.10;54.50;;;;;;6255822;22;19903;-83
2023/07/14 14:35:32;;;;;;;;;;;33.00;55.20;;;;;;6307267;22;19911;-83
2023/07/14 14:38:05;;;;;;;;;;;32.60;53.40;;;;;;6298837;22;19913;-82
2023/07/14 14:40:33;;;;;;;;;;;32.40;53.00;;;;;;6307476;22;19910;-82